createdAt,value
2022-12-07T00:04:14.297Z,40.70
2022-12-07T00:09:09.759Z,39.57
2022-12-07T00:14:06.978Z,40.67
2022-12-07T00:19:00.901Z,41.67
2022-12-07T00:23:58.232Z,40.80
2022-12-07T00:28:53.928Z,40.13
2022-12-07T00:33:48.518Z,42.30
2022-12-07T00:38:42.779Z,38.83
2022-12-07T00:43:37.460Z,38.00
2022-12-07T00:48:31.110Z,39.83
2022-12-07T00:53:24.689Z,41.43
2022-12-07T00:58:18.233Z,40.03
2022-12-07T01:03:16.557Z,37.63
2022-12-07T01:08:10.994Z,39.87
2022-12-07T01:13:04.450Z,37.17
2022-12-07T01:17:57.823Z,37.57
2022-12-07T01:22:52.540Z,32.77
2022-12-07T01:27:45.953Z,32.30
2022-12-07T01:32:39.439Z,39.47
2022-12-07T01:37:37.988Z,37.27
2022-12-07T01:42:32.655Z,36.93
2022-12-07T01:47:26.019Z,35.93
2022-12-07T01:52:26.288Z,35.17
2022-12-07T01:57:21.649Z,37.60
2022-12-07T02:02:23.849Z,36.60
2022-12-07T02:07:18.208Z,39.17
2022-12-07T02:12:11.737Z,38.83
2022-12-07T02:17:20.127Z,36.43
2022-12-07T02:22:48.281Z,34.43
2022-12-07T02:27:49.366Z,36.53
2022-12-07T02:32:57.723Z,34.83
2022-12-07T02:38:03.753Z,36.80
2022-12-07T02:43:06.072Z,34.70
2022-12-07T02:48:04.514Z,37.13
2022-12-07T02:52:58.192Z,34.83
2022-12-07T02:58:21.167Z,37.23
2022-12-07T03:03:17.726Z,40.40
2022-12-07T03:08:23.969Z,38.50
2022-12-07T03:13:26.216Z,42.40
2022-12-07T03:18:25.990Z,36.10
2022-12-07T03:23:21.545Z,40.60
2022-12-07T03:28:19.519Z,42.43
2022-12-07T03:33:21.892Z,40.43
2022-12-07T03:38:24.096Z,42.40
2022-12-07T03:43:18.723Z,38.93
2022-12-07T03:48:24.852Z,42.77
2022-12-07T03:53:26.732Z,40.57
2022-12-07T03:58:24.420Z,43.47
2022-12-07T04:03:18.101Z,42.73
2022-12-07T04:08:11.961Z,40.33
2022-12-07T04:13:10.786Z,43.20
2022-12-07T04:18:04.192Z,45.67
2022-12-07T04:22:57.756Z,43.47
2022-12-07T04:27:51.151Z,40.97
2022-12-07T04:32:45.959Z,42.83
2022-12-07T04:37:40.221Z,42.97
2022-12-07T04:42:33.590Z,40.67
2022-12-07T04:47:26.992Z,40.90
2022-12-07T04:52:21.694Z,38.93
2022-12-07T04:57:15.058Z,39.90
2022-12-07T05:02:08.427Z,44.13
2022-12-07T05:07:01.939Z,43.30
2022-12-07T05:11:56.665Z,51.43
2022-12-07T05:16:54.613Z,49.50
2022-12-07T05:21:48.482Z,50.00
2022-12-07T05:26:42.161Z,44.43
2022-12-07T05:31:36.973Z,51.13
2022-12-07T05:36:32.159Z,44.67
2022-12-07T05:41:43.250Z,47.63
2022-12-07T05:46:38.164Z,50.57
2022-12-07T05:51:31.842Z,45.17
2022-12-07T05:56:25.356Z,51.27
2022-12-07T06:01:18.665Z,45.07
2022-12-07T06:06:13.431Z,45.23
2022-12-07T06:11:24.486Z,50.40
2022-12-07T06:16:18.859Z,43.90
2022-12-07T06:21:13.733Z,40.63
2022-12-07T06:26:07.315Z,46.97
2022-12-07T06:31:01.124Z,41.93
2022-12-07T06:35:54.595Z,43.47
2022-12-07T06:40:49.267Z,43.27
2022-12-07T06:45:43.866Z,42.73
2022-12-07T06:50:54.169Z,40.53
2022-12-07T06:55:49.616Z,41.30
2022-12-07T07:00:43.112Z,40.23
2022-12-07T07:05:37.243Z,41.00
2022-12-07T07:10:30.807Z,39.73
2022-12-07T07:15:25.611Z,39.37
2022-12-07T07:20:19.132Z,40.03
2022-12-07T07:25:12.672Z,38.67
2022-12-07T07:30:08.080Z,42.50
2022-12-07T07:35:02.896Z,41.77
2022-12-07T07:39:56.476Z,37.87
2022-12-07T07:44:49.994Z,38.00
2022-12-07T07:49:48.219Z,40.70
2022-12-07T07:54:43.243Z,40.00
2022-12-07T07:59:36.601Z,40.57
2022-12-07T08:04:30.009Z,42.13
2022-12-07T08:09:23.545Z,38.37
2022-12-07T08:14:18.389Z,40.33
2022-12-07T08:19:11.869Z,40.13
2022-12-07T08:24:05.778Z,38.87
2022-12-07T08:28:59.178Z,40.33
2022-12-07T08:34:00.704Z,42.93
2022-12-07T08:39:29.406Z,43.73
2022-12-07T08:44:10.706Z,40.73
2022-12-07T08:49:12.230Z,39.30
2022-12-07T08:54:11.877Z,37.93
2022-12-07T08:59:07.148Z,42.00
2022-12-07T09:04:03.741Z,37.97
2022-12-07T09:09:10.263Z,37.67
2022-12-07T09:14:03.963Z,40.60
2022-12-07T09:19:02.211Z,39.33
2022-12-07T09:23:57.176Z,40.77
2022-12-07T09:28:54.756Z,37.90
2022-12-07T09:33:48.266Z,37.77
2022-12-07T09:38:41.584Z,42.73
2022-12-07T09:43:38.756Z,40.27
2022-12-07T09:48:37.461Z,37.10
2022-12-07T09:53:35.820Z,39.87
2022-12-07T09:58:32.865Z,41.03
2022-12-07T10:03:30.528Z,42.30
2022-12-07T10:08:24.267Z,37.53
2022-12-07T10:13:22.564Z,40.03
2022-12-07T10:18:31.205Z,33.37
2022-12-07T10:23:24.682Z,37.47
2022-12-07T10:28:20.396Z,34.10
2022-12-07T10:33:36.908Z,32.20
2022-12-07T10:38:33.572Z,31.17
2022-12-07T10:43:26.921Z,31.67
2022-12-07T10:48:34.681Z,29.70
2022-12-07T10:53:53.844Z,26.57
2022-12-07T10:59:12.585Z,24.47
2022-12-07T11:04:35.569Z,26.90
2022-12-07T11:10:08.951Z,26.40
2022-12-07T11:15:16.509Z,22.63
2022-12-07T11:20:32.232Z,22.80
2022-12-07T11:25:34.705Z,23.40
2022-12-07T11:30:36.550Z,23.67
2022-12-07T11:35:49.716Z,22.73
2022-12-07T11:40:50.539Z,22.90
2022-12-07T11:45:48.755Z,20.23
2022-12-07T11:50:47.513Z,18.13
2022-12-07T11:55:54.758Z,19.60
2022-12-07T12:00:48.632Z,18.67
2022-12-07T12:05:42.344Z,18.40
2022-12-07T12:10:56.763Z,12.97
2022-12-07T12:16:16.734Z,12.77
2022-12-07T12:21:17.780Z,12.03
2022-12-07T12:26:22.295Z,8.17
2022-12-07T12:31:30.742Z,11.53
2022-12-07T12:36:45.080Z,11.67
2022-12-07T12:42:09.529Z,10.30
2022-12-07T12:47:05.803Z,10.17
2022-12-07T12:52:04.240Z,10.27
2022-12-07T12:57:09.646Z,8.97
2022-12-07T13:02:24.172Z,11.60
2022-12-07T13:08:07.629Z,11.60
2022-12-07T13:13:06.213Z,10.23
2022-12-07T13:18:24.051Z,10.10
2022-12-07T13:23:24.112Z,9.97
2022-12-07T13:28:22.370Z,10.93
2022-12-07T13:33:19.751Z,13.30
2022-12-07T13:38:28.998Z,9.37
2022-12-07T13:43:23.807Z,13.13
2022-12-07T13:48:26.524Z,11.63
2022-12-07T13:53:20.059Z,13.00
2022-12-07T13:58:14.424Z,13.30
2022-12-07T14:03:32.133Z,14.90
2022-12-07T14:08:25.993Z,16.33
2022-12-07T14:13:35.017Z,19.07
2022-12-07T14:18:38.270Z,16.73
2022-12-07T14:23:31.679Z,16.87
2022-12-07T14:28:30.760Z,19.20
2022-12-07T14:33:26.045Z,17.80
2022-12-07T14:38:20.790Z,20.57
2022-12-07T14:43:17.745Z,23.83
2022-12-07T14:53:37.765Z,45.30
2022-12-07T14:58:31.111Z,25.43
2022-12-07T15:03:24.584Z,21.17
2022-12-07T15:08:17.986Z,22.20
2022-12-07T15:13:30.452Z,22.97
2022-12-07T15:18:25.827Z,23.20
2022-12-07T15:23:19.856Z,22.33
2022-12-07T15:28:18.091Z,24.83
2022-12-07T15:33:12.155Z,23.50
2022-12-07T15:38:09.320Z,28.57
2022-12-07T15:43:02.742Z,25.27
2022-12-07T15:53:11.060Z,23.37
2022-12-07T15:58:05.254Z,23.93
2022-12-07T16:03:00.217Z,26.03
2022-12-07T16:07:53.691Z,26.50
2022-12-07T16:12:47.020Z,24.63
2022-12-07T16:17:40.491Z,24.50
2022-12-07T16:22:35.445Z,24.40
2022-12-07T16:27:29.006Z,25.90
2022-12-07T16:32:22.418Z,24.60
2022-12-07T16:37:15.940Z,25.50
2022-12-07T16:42:10.827Z,24.47
2022-12-07T16:47:04.367Z,27.47
2022-12-07T16:57:46.870Z,25.20
2022-12-07T17:02:40.234Z,22.53
2022-12-07T17:07:33.902Z,24.10
2022-12-07T17:12:30.585Z,24.93
2022-12-07T17:17:26.001Z,22.77
2022-12-07T17:22:19.426Z,27.57
2022-12-07T17:27:13.197Z,25.80
2022-12-07T17:32:07.020Z,23.10
2022-12-07T17:37:03.536Z,23.70
2022-12-07T17:42:29.076Z,20.53
2022-12-07T17:47:22.753Z,22.87
2022-12-07T17:52:35.170Z,23.60
2022-12-07T17:57:28.591Z,24.67
2022-12-07T18:02:21.980Z,23.53
2022-12-07T18:07:17.422Z,23.73
2022-12-07T18:12:11.373Z,23.10
2022-12-07T18:17:05.035Z,20.87
2022-12-07T18:22:00.177Z,22.80
2022-12-07T18:27:00.642Z,24.13
2022-12-07T18:31:55.934Z,28.40
2022-12-07T18:36:52.949Z,36.73
2022-12-07T18:41:48.136Z,28.47
2022-12-07T18:46:43.773Z,24.70
2022-12-07T18:51:37.208Z,26.33
2022-12-07T18:56:31.439Z,27.43
2022-12-07T19:01:24.851Z,28.43
2022-12-07T19:06:19.767Z,25.80
2022-12-07T19:11:47.153Z,24.43
2022-12-07T19:16:48.769Z,23.63
2022-12-07T19:21:43.944Z,24.37
2022-12-07T19:26:37.623Z,21.57
2022-12-07T19:31:31.764Z,25.17
2022-12-07T19:36:27.819Z,22.47
2022-12-07T19:41:35.317Z,24.37
2022-12-07T19:46:30.097Z,23.90
2022-12-07T19:51:24.247Z,23.00
2022-12-07T19:56:21.455Z,24.80
2022-12-07T20:31:30.781Z,25.63
2022-12-07T20:36:26.049Z,24.30
2022-12-07T20:41:40.814Z,20.87
2022-12-07T20:46:34.199Z,20.87
2022-12-07T20:51:27.798Z,24.60
2022-12-07T20:56:28.581Z,22.97
2022-12-07T21:01:22.079Z,19.73
2022-12-07T21:06:17.762Z,20.47
2022-12-07T21:11:11.137Z,23.17
2022-12-07T21:16:11.996Z,21.97
2022-12-07T21:21:06.632Z,20.03
2022-12-07T21:26:02.722Z,25.00
2022-12-07T21:31:14.939Z,20.60
2022-12-07T21:36:12.124Z,20.33
2022-12-07T21:41:14.481Z,20.77
2022-12-07T21:46:09.148Z,24.40
2022-12-07T21:51:09.682Z,21.93
2022-12-07T21:56:04.200Z,22.37
2022-12-07T22:00:58.258Z,20.73
2022-12-07T22:05:52.167Z,18.90
2022-12-07T22:10:47.003Z,20.20
2022-12-07T22:15:42.756Z,22.00
2022-12-07T22:20:36.302Z,23.37
2022-12-07T22:25:29.626Z,24.60
2022-12-07T22:30:24.417Z,25.83
2022-12-07T22:35:18.100Z,24.93
2022-12-07T22:40:13.332Z,23.83
2022-12-07T22:45:07.869Z,22.47
2022-12-07T22:50:05.353Z,21.67
2022-12-07T22:54:58.715Z,22.80
2022-12-07T22:59:52.073Z,22.17
2022-12-07T23:04:45.544Z,23.10
2022-12-07T23:09:40.317Z,19.83
2022-12-07T23:14:37.152Z,24.70
2022-12-07T23:19:31.182Z,20.00
2022-12-07T23:24:24.544Z,20.60
2022-12-07T23:29:19.355Z,22.00
2022-12-07T23:34:12.651Z,18.97
2022-12-07T23:39:06.106Z,18.33
2022-12-07T23:44:01.642Z,22.30
2022-12-07T23:48:58.974Z,18.57
2022-12-07T23:53:54.247Z,18.63
2022-12-07T23:58:48.374Z,18.00
